Flight Track Log - Related Links

Times and Time Zones

All times are in EST time to prevent confusion due to time zone crossing. See the FIN666 flight status page for this flight to view local times or setup timezone preferences in your user account.

Time Position Orientation Groundspeed Altitude Reporting Facility
EST Latitude Longitude Course Direction KTS MPH feet Rate Location/Type
Wed 07:25:00 AM 55.9081 13.2574 49° Northeast  Level Estimated
Wed 07:26:00 AM 55.9802 13.4092 50° Northeast  Level Estimated
Wed 07:27:00 AM 56.0521 13.5615 50° Northeast  Level Estimated
Wed 07:28:00 AM 56.1238 13.7144 50° Northeast  Level Estimated
Wed 07:29:00 AM 56.1953 13.8679 50° Northeast  Level Estimated
Wed 07:30:00 AM 56.2687 14.0264 50° Northeast  Level Estimated
Wed 07:31:00 AM 56.3419 14.1854 50° Northeast  Level Estimated
Wed 07:32:00 AM 56.4148 14.3451 50° Northeast  Level Estimated
Wed 07:33:00 AM 56.4876 14.5054 51° Northeast  Level Estimated
Wed 07:34:00 AM 56.5601 14.6663 51° Northeast  Level Estimated
Wed 07:35:00 AM 56.6325 14.8278 51° Northeast  Level Estimated
Wed 07:36:00 AM 56.7046 14.9899 51° Northeast  Level Estimated
Wed 07:37:00 AM 56.7765 15.1527 51° Northeast  Level Estimated
Wed 07:38:00 AM 56.8482 15.3161 51° Northeast  Level Estimated
Wed 07:39:00 AM 56.9197 15.4801 51° Northeast  Level Estimated
Wed 07:40:00 AM 56.9910 15.6447 51° Northeast  Level Estimated
Wed 07:41:00 AM 57.0620 15.8100 52° Northeast  Level Estimated
Wed 07:42:00 AM 57.1329 15.9759 52° Northeast  Level Estimated
Wed 07:43:00 AM 57.2035 16.1424 52° Northeast  Level Estimated
Wed 07:44:00 AM 57.2739 16.3096 52° Northeast  Level Estimated
Wed 07:45:00 AM 57.3441 16.4774 52° Northeast  Level Estimated
Wed 07:46:00 AM 57.4140 16.6459 52° Northeast  Level Estimated
Wed 07:47:00 AM 57.4837 16.8150 52° Northeast  Level Estimated
Wed 07:48:00 AM 57.5532 16.9847 53° Northeast  Level Estimated
Wed 07:49:00 AM 57.6225 17.1551 53° Northeast  Level Estimated
Wed 07:50:00 AM 57.6916 17.3262 53° Northeast  Level Estimated
Wed 07:51:00 AM 57.7604 17.4979 53° Northeast  Level Estimated
Wed 07:52:00 AM 57.8289 17.6702 53° Northeast  Level Estimated
Wed 07:53:00 AM 57.8973 17.8432 53° Northeast  Level Estimated
Wed 07:54:00 AM 57.9654 18.0169 53° Northeast  Level Estimated
Wed 07:55:00 AM 58.0332 18.1912 54° Northeast  Level Estimated
Wed 07:56:00 AM 58.1009 18.3662 54° Northeast  Level Estimated
Wed 07:57:00 AM 58.1683 18.5418 54° Northeast  Level Estimated
Wed 07:58:00 AM 58.2354 18.7181 54° Northeast  Level Estimated
Wed 07:59:00 AM 58.3023 18.8951 54° Northeast  Level Estimated
Wed 08:00:00 AM 58.3690 19.0728 54° Northeast  Level Estimated
Wed 08:01:00 AM 58.4354 19.2511 55° Northeast  Level Estimated
Wed 08:02:00 AM 58.5015 19.4301 55° Northeast  Level Estimated
Wed 08:03:00 AM 58.5674 19.6098 55° Northeast  Level Estimated
Wed 08:04:00 AM 58.6331 19.7901 55° Northeast  Level Estimated
Wed 08:05:00 AM 58.6985 19.9711 55° Northeast  Level Estimated
Wed 08:06:00 AM 58.7636 20.1528 55° Northeast  Level Estimated
Wed 08:07:00 AM 58.8285 20.3352 55° Northeast  Level Estimated
Wed 08:08:00 AM 58.8932 20.5183 56° Northeast  Level Estimated
Wed 08:09:00 AM 58.9576 20.7020 56° Northeast  Level Estimated
Wed 08:10:00 AM 59.0217 20.8865 56° Northeast  Level Estimated
Wed 08:11:00 AM 59.0855 21.0716 56° Northeast  Level Estimated
Wed 08:12:00 AM 59.1491 21.2574 56° Northeast  Level Estimated
Wed 08:13:00 AM 59.2124 21.4439 56° Northeast  Level Estimated
Wed 08:14:00 AM 59.2746 21.6285 57° Northeast  Level Estimated
Wed 08:15:00 AM 59.3365 21.8137 57° Northeast  Level Estimated
Wed 08:16:00 AM 59.3981 21.9996 57° Northeast  Level Estimated
Wed 08:17:00 AM 59.4595 22.1862 57° Northeast  Level Estimated
Wed 08:18:00 AM 59.5206 22.3735 57° Northeast  Level Estimated
Wed 08:19:00 AM 59.5815 22.5614 57° Northeast  Level Estimated
Wed 08:20:00 AM 59.6420 22.7500 58° Northeast  Level Estimated
Wed 08:21:00 AM 59.7023 22.9393 58° Northeast  Level Estimated
Wed 08:22:00 AM 59.7624 23.1293 58° Northeast  Level Estimated
Wed 08:23:00 AM 59.8221 23.3200 58° Northeast  Level Estimated
Wed 08:24:00 AM 59.8816 23.5113 58° Northeast  Level Estimated
Wed 08:25:00 AM 59.9408 23.7033 58° Northeast  Level Estimated
Wed 08:26:00 AM 59.9997 23.8960 58° Northeast  Level Estimated
Wed 08:27:00 AM 60.0583 24.0895 59° Northeast  Level Estimated
Wed 08:28:00 AM 60.1167 24.2835 59° Northeast  Level Estimated
Wed 08:29:00 AM 60.1748 24.4783 59° Northeast  Level Estimated
Wed 08:30:00 AM 60.2325 24.6738 59° Northeast  Level Estimated
Wed 08:31:00 AM 60.2900 24.8699 59° Northeast  Level Estimated
Wed 08:32:00 AM 60.3172 24.9633 60° Northeast  Level Estimated
Wed 08:33:00 AM 60.3172 24.9633 37° Northeast  Level Estimated
Wed 08:34:00 AM 60.3172 24.9633 37° Northeast  Level Estimated
Wed 08:35:00 AM 60.3172 24.9633 37° Northeast  Level Estimated
Wed 08:36:00 AM 60.3172 24.9633 37° Northeast  Level Estimated
Wed 08:37:00 AM 60.3172 24.9633 37° Northeast  Level Estimated
Wed 08:38:00 AM 60.3172 24.9633 37° Northeast  Level Estimated
Wed 08:39:00 AM 60.3172 24.9633 37° Northeast  Level Estimated
Wed 08:40:00 AM 60.3172 24.9633 37° Northeast  Level Estimated
Wed 08:41:00 AM 60.3172 24.9633 37° Northeast  Level Estimated
Wed 08:42:00 AM 60.3172 24.9633 37° Northeast  Level Estimated
Wed 08:43:00 AM 60.3172 24.9633 37° Northeast  Level Estimated
Wed 08:44:00 AM 60.3172 24.9633 37° Northeast  Level Estimated
Wed 08:45:00 AM 60.3172 24.9633 37° Northeast  Level Estimated
Wed 08:46:00 AM 60.3172 24.9633 37° Northeast  Level Estimated

Login

Don't have an account? Register now (free) for customized features, flight alerts, and more!